createdAt,value
2022-10-21T00:00:55.043Z,100883.50
2022-10-21T00:03:24.043Z,100882.63
2022-10-21T00:05:52.345Z,100873.19
2022-10-21T00:08:20.470Z,100867.13
2022-10-21T00:10:54.673Z,100862.81
2022-10-21T00:13:23.313Z,100851.72
2022-10-21T00:16:09.153Z,100853.44
2022-10-21T00:18:37.939Z,100836.00
2022-10-21T00:21:10.275Z,100873.19
2022-10-21T00:23:37.967Z,100860.28
2022-10-21T00:26:06.198Z,100872.28
2022-10-21T00:28:33.914Z,100863.66
2022-10-21T00:31:01.395Z,100873.06
2022-10-21T00:33:29.426Z,100873.13
2022-10-21T00:35:59.190Z,100875.75
2022-10-21T00:38:26.540Z,100879.13
2022-10-21T00:40:53.973Z,100873.13
2022-10-21T00:43:21.109Z,100874.84
2022-10-21T00:45:52.769Z,100870.44
2022-10-21T00:48:30.865Z,100856.53
2022-10-21T00:51:06.597Z,100863.34
2022-10-21T00:53:37.445Z,100832.31
2022-10-21T00:56:15.414Z,100842.63
2022-10-21T00:58:45.768Z,100838.28
2022-10-21T01:01:16.648Z,100840.69
2022-10-21T01:03:46.951Z,100838.09
2022-10-21T01:06:15.867Z,100807.00
2022-10-21T01:08:43.754Z,100816.66
2022-10-21T01:11:16.079Z,100806.31
2022-10-21T01:14:03.746Z,100804.59
2022-10-21T01:16:48.235Z,100795.06
2022-10-21T01:19:35.987Z,100792.41
2022-10-21T01:22:56.769Z,100775.22
2022-10-21T01:25:45.655Z,100768.31
2022-10-21T01:28:24.996Z,100757.03
2022-10-21T01:31:27.409Z,100761.25
2022-10-21T01:33:54.588Z,100762.06
2022-10-21T01:36:28.739Z,100764.72
2022-10-21T01:39:31.528Z,100750.81
2022-10-21T01:42:11.540Z,100765.53
2022-10-21T01:44:58.075Z,100749.34
2022-10-21T01:47:32.972Z,100732.03
2022-10-21T01:50:25.579Z,100721.84
2022-10-21T01:52:58.031Z,100720.25
2022-10-21T01:55:30.038Z,100721.09
2022-10-21T01:58:04.336Z,100727.03
2022-10-21T02:00:33.988Z,100682.81
2022-10-21T02:03:05.216Z,100737.16
2022-10-21T02:05:33.347Z,100692.09
2022-10-21T02:08:00.599Z,100740.47
2022-10-21T02:10:33.761Z,100750.88
2022-10-21T02:13:04.696Z,100687.09
2022-10-21T02:15:34.702Z,100734.63
2022-10-21T02:18:08.460Z,100719.84
2022-10-21T02:20:41.349Z,100726.78
2022-10-21T02:23:12.825Z,100622.97
2022-10-21T02:25:42.865Z,100725.03
2022-10-21T02:28:12.009Z,100724.91
2022-10-21T02:31:09.696Z,100699.03
2022-10-21T02:34:08.107Z,100739.44
2022-10-21T02:36:42.286Z,100741.94
2022-10-21T02:39:19.109Z,100729.91
2022-10-21T02:41:50.376Z,100729.91
2022-10-21T02:44:17.833Z,100745.28
2022-10-21T02:46:48.195Z,100706.50
2022-10-21T02:49:15.037Z,100743.47
2022-10-21T02:51:43.151Z,100741.75
2022-10-21T02:54:10.318Z,100729.84
2022-10-21T02:56:37.507Z,100702.28
2022-10-21T02:59:04.717Z,100724.72
2022-10-21T03:01:32.051Z,100718.69
2022-10-21T03:03:59.171Z,100681.59
2022-10-21T03:06:26.429Z,100704.16
2022-10-21T03:08:53.842Z,100659.91
2022-10-21T03:11:21.176Z,100700.56
2022-10-21T03:13:48.267Z,100709.13
2022-10-21T03:16:15.620Z,100679.84
2022-10-21T03:18:42.966Z,100702.16
2022-10-21T03:21:10.545Z,100705.47
2022-10-21T03:23:37.567Z,100671.06
2022-10-21T03:26:04.717Z,100705.59
2022-10-21T03:28:31.797Z,100713.31
2022-10-21T03:30:59.097Z,100681.38
2022-10-21T03:33:26.418Z,100684.97
2022-10-21T03:35:53.475Z,100691.91
2022-10-21T03:38:20.769Z,100570.88
2022-10-21T03:40:48.136Z,100685.09
2022-10-21T03:43:15.441Z,100680.81
2022-10-21T03:45:42.819Z,100671.53
2022-10-21T03:48:10.085Z,100626.38
2022-10-21T03:50:37.266Z,100638.69
2022-10-21T03:53:13.702Z,100644.00
2022-10-21T03:55:46.107Z,100654.38
2022-10-21T03:58:13.397Z,100654.47
2022-10-21T04:00:40.606Z,100640.63
2022-10-21T04:03:07.733Z,100646.72
2022-10-21T04:05:35.478Z,100632.94
2022-10-21T04:08:02.817Z,100555.28
2022-10-21T04:10:30.169Z,100627.03
2022-10-21T04:12:57.507Z,100596.94
2022-10-21T04:15:24.637Z,100617.59
2022-10-21T04:17:51.724Z,100535.47
2022-10-21T04:20:19.615Z,100624.63
2022-10-21T04:22:47.047Z,100601.34
2022-10-21T04:25:14.335Z,100616.97
2022-10-21T04:27:41.757Z,100619.66
2022-10-21T04:30:09.413Z,100597.94
2022-10-21T04:32:36.766Z,100572.03
2022-10-21T04:35:04.556Z,100622.09
2022-10-21T04:37:31.650Z,100616.03
2022-10-21T04:39:58.780Z,100580.47
2022-10-21T04:42:25.941Z,100567.56
2022-10-21T04:44:53.177Z,100599.59
2022-10-21T04:47:20.599Z,100609.88
2022-10-21T04:49:47.849Z,100601.41
2022-10-21T04:52:15.124Z,100587.75
2022-10-21T04:54:42.510Z,100555.13
2022-10-21T04:57:09.870Z,100555.13
2022-10-21T04:59:36.885Z,100572.53
2022-10-21T05:02:04.080Z,100574.94
2022-10-21T05:04:31.433Z,100509.53
2022-10-21T05:06:58.504Z,100562.34
2022-10-21T05:09:25.699Z,100534.81
2022-10-21T05:11:52.902Z,100562.34
2022-10-21T05:14:22.598Z,100545.31
2022-10-21T05:16:50.529Z,100490.09
2022-10-21T05:19:17.871Z,100543.75
2022-10-21T05:21:47.165Z,100536.09
2022-10-21T05:24:16.981Z,100540.41
2022-10-21T05:26:44.177Z,100541.25
2022-10-21T05:29:11.386Z,100533.50
2022-10-21T05:31:38.570Z,100491.28
2022-10-21T05:34:05.907Z,100543.91
2022-10-21T05:36:33.175Z,100528.59
2022-10-21T05:39:00.406Z,100498.31
2022-10-21T05:41:27.418Z,100537.25
2022-10-21T05:43:54.545Z,100511.47
2022-10-21T05:46:21.861Z,100533.88
2022-10-21T05:51:26.535Z,100529.78
2022-10-21T05:53:55.009Z,100515.25
2022-10-21T05:56:22.743Z,100511.94
2022-10-21T05:58:50.445Z,100509.47
2022-10-21T06:01:17.682Z,100449.88
2022-10-21T06:03:44.837Z,100501.72
2022-10-21T06:06:12.236Z,100501.72
2022-10-21T06:08:39.663Z,100443.09
2022-10-21T06:11:13.098Z,100480.38
2022-10-21T06:13:40.374Z,100388.09
2022-10-21T06:16:08.589Z,100455.63
2022-10-21T06:18:36.404Z,100464.16
2022-10-21T06:21:04.157Z,100460.56
2022-10-21T06:23:31.781Z,100459.03
2022-10-21T06:26:00.047Z,100454.00
2022-10-21T06:28:28.615Z,100451.38
2022-10-21T06:30:56.466Z,100454.00
2022-10-21T06:33:26.820Z,100458.28
2022-10-21T06:35:56.011Z,100462.63
2022-10-21T06:38:24.227Z,100428.25
2022-10-21T06:40:51.457Z,100398.19
2022-10-21T06:43:19.095Z,100405.97
2022-10-21T06:45:46.435Z,100435.38
2022-10-21T06:48:14.334Z,100433.59
2022-10-21T06:50:41.688Z,100449.19
2022-10-21T06:53:08.938Z,100370.69
2022-10-21T06:55:36.259Z,100445.84
2022-10-21T06:58:03.715Z,100426.06
2022-10-21T07:03:03.133Z,100429.72
2022-10-21T07:05:30.343Z,100375.56
2022-10-21T07:07:57.625Z,100384.25
2022-10-21T07:10:24.869Z,100413.56
2022-10-21T07:12:52.436Z,100409.28
2022-10-21T07:15:19.626Z,100363.75
2022-10-21T07:17:46.857Z,100413.72
2022-10-21T07:20:14.088Z,100408.63
2022-10-21T07:22:41.137Z,100412.09
2022-10-21T07:25:08.608Z,100413.03
2022-10-21T07:27:35.765Z,100415.66
2022-10-21T07:30:03.077Z,100400.25
2022-10-21T07:32:30.320Z,100364.09
2022-10-21T07:34:57.547Z,100393.38
2022-10-21T07:37:24.860Z,100410.66
2022-10-21T07:39:52.136Z,100418.34
2022-10-21T07:42:19.372Z,100410.69
2022-10-21T07:44:46.667Z,100352.16
2022-10-21T07:47:13.898Z,100360.06
2022-10-21T07:49:41.236Z,100340.25
2022-10-21T07:52:08.409Z,100390.34
2022-10-21T07:54:35.746Z,100374.97
2022-10-21T07:57:03.248Z,100344.06
2022-10-21T07:59:31.525Z,100252.88
2022-10-21T08:01:58.831Z,100363.97
2022-10-21T08:04:30.257Z,100366.59
2022-10-21T08:06:57.987Z,100369.13
2022-10-21T08:09:26.808Z,100355.25
2022-10-21T08:11:54.361Z,100395.72
2022-10-21T08:14:21.677Z,100416.34
2022-10-21T08:16:53.099Z,100421.50
2022-10-21T08:19:24.827Z,100412.06
2022-10-21T08:21:52.313Z,100375.97
2022-10-21T08:24:19.794Z,100320.88
2022-10-21T08:26:46.928Z,100412.09
2022-10-21T08:29:14.156Z,100431.84
2022-10-21T08:31:41.639Z,100431.94
2022-10-21T08:34:09.145Z,100426.81
2022-10-21T08:36:38.035Z,100453.44
2022-10-21T08:39:05.839Z,100430.34
2022-10-21T08:42:08.110Z,100383.09
2022-10-21T08:45:07.583Z,100401.22
2022-10-21T08:47:45.671Z,100420.19
2022-10-21T08:50:21.696Z,100418.53
2022-10-21T08:53:02.341Z,100400.56
2022-10-21T08:55:35.157Z,100410.91
2022-10-21T08:58:03.932Z,100383.41
2022-10-21T09:00:47.065Z,100374.91
2022-10-21T09:03:33.317Z,100408.53
2022-10-21T09:06:21.682Z,100410.28
2022-10-21T09:09:21.378Z,100411.19
2022-10-21T09:12:20.388Z,100412.09
2022-10-21T09:14:57.631Z,100413.81
2022-10-21T09:17:43.555Z,100407.84
2022-10-21T09:20:19.533Z,100411.31
2022-10-21T09:23:40.643Z,100399.28
2022-10-21T09:26:33.075Z,100406.19
2022-10-21T09:29:16.576Z,100403.66
2022-10-21T09:31:44.598Z,100402.78
2022-10-21T09:34:42.674Z,100377.84
2022-10-21T09:37:18.745Z,100398.50
2022-10-21T09:39:54.716Z,100401.94
2022-10-21T09:42:42.659Z,100400.25
2022-10-21T09:45:23.417Z,100381.34
2022-10-21T09:48:00.118Z,100384.75
2022-10-21T09:50:29.181Z,100398.50
2022-10-21T09:53:02.929Z,100389.94
2022-10-21T09:55:31.550Z,100367.56
2022-10-21T09:58:03.794Z,100362.41
2022-10-21T10:00:47.055Z,100366.75
2022-10-21T10:03:33.533Z,100360.75
2022-10-21T10:06:01.843Z,100357.31
2022-10-21T10:08:40.213Z,100361.63
2022-10-21T10:11:10.160Z,100354.75
2022-10-21T10:13:43.412Z,100324.66
2022-10-21T10:16:18.919Z,100362.50
2022-10-21T10:18:46.299Z,100341.84
2022-10-21T10:21:23.145Z,100328.09
2022-10-21T10:23:55.649Z,100326.38
2022-10-21T10:26:30.653Z,100361.63
2022-10-21T10:29:08.695Z,100360.75
2022-10-21T10:31:37.305Z,100358.19
2022-10-21T10:34:09.307Z,100360.75
2022-10-21T10:36:39.796Z,100342.69
2022-10-21T10:39:17.385Z,100360.75
2022-10-21T10:41:48.681Z,100348.72
2022-10-21T10:44:31.892Z,100337.53
2022-10-21T10:47:03.237Z,100332.38
2022-10-21T10:49:40.085Z,100328.94
2022-10-21T10:52:17.225Z,100330.66
2022-10-21T10:54:44.737Z,100337.53
2022-10-21T10:57:14.524Z,100326.34
2022-10-21T10:59:41.719Z,100322.03
2022-10-21T11:02:22.448Z,100316.03
2022-10-21T11:05:08.569Z,100305.69
2022-10-21T11:07:49.366Z,100295.34
2022-10-21T11:10:39.547Z,100295.34
2022-10-21T11:13:19.193Z,100287.59
2022-10-21T11:16:50.423Z,100290.16
2022-10-21T11:19:34.790Z,100291.88
2022-10-21T11:22:36.022Z,100290.16
2022-10-21T11:25:11.862Z,100281.53
2022-10-21T11:28:02.606Z,100280.63
2022-10-21T11:30:51.685Z,100279.72
2022-10-21T11:34:01.780Z,100274.50
2022-10-21T11:36:48.486Z,100265.84
2022-10-21T11:39:36.661Z,100269.22
2022-10-21T11:42:23.337Z,100254.56
2022-10-21T11:44:53.486Z,100262.28
2022-10-21T11:47:26.216Z,100261.41
2022-10-21T11:50:12.219Z,100255.38
2022-10-21T11:52:48.863Z,100259.69
2022-10-21T11:55:31.400Z,100253.66
2022-10-21T11:58:24.351Z,100260.59
2022-10-21T12:00:59.018Z,100258.84
2022-10-21T12:03:37.275Z,100258.88
2022-10-21T12:06:46.067Z,100250.31
2022-10-21T12:09:19.542Z,100239.97
2022-10-21T12:11:52.074Z,100202.25
2022-10-21T12:14:21.946Z,100238.22
2022-10-21T12:16:50.586Z,100219.34
2022-10-21T12:19:18.098Z,100174.66
2022-10-21T12:21:46.166Z,100202.09
2022-10-21T12:24:47.645Z,100208.00
2022-10-21T12:27:56.010Z,100203.66
2022-10-21T12:30:44.611Z,100160.78
2022-10-21T12:33:11.917Z,100207.97
2022-10-21T12:36:12.191Z,100207.06
2022-10-21T12:38:42.240Z,100210.53
2022-10-21T12:41:24.700Z,100196.75
2022-10-21T12:44:04.137Z,100191.59
2022-10-21T12:46:36.212Z,100192.50
2022-10-21T12:49:28.123Z,100171.03
2022-10-21T12:52:03.770Z,100182.16
2022-10-21T12:55:02.395Z,100174.38
2022-10-21T12:57:33.483Z,100170.09
2022-10-21T13:00:28.654Z,100176.00
2022-10-21T13:03:03.292Z,100187.19
2022-10-21T13:05:39.806Z,100187.22
2022-10-21T13:08:24.641Z,100177.78
2022-10-21T13:11:06.533Z,100182.94
2022-10-21T13:13:33.922Z,100177.78
2022-10-21T13:16:22.880Z,100175.22
2022-10-21T13:19:18.215Z,100189.91
2022-10-21T13:21:52.855Z,100098.25
2022-10-21T13:24:30.755Z,100186.53
2022-10-21T13:27:03.970Z,100112.84
2022-10-21T13:29:33.574Z,100177.94
2022-10-21T13:32:17.688Z,100175.38
2022-10-21T13:34:51.207Z,100179.69
2022-10-21T13:37:52.570Z,100129.94
2022-10-21T13:40:22.857Z,100175.38
2022-10-21T13:42:58.126Z,100171.06
2022-10-21T13:45:45.700Z,100174.56
2022-10-21T13:48:15.888Z,100167.69
2022-10-21T13:50:46.038Z,100181.41
2022-10-21T13:53:37.314Z,100160.84
2022-10-21T13:56:09.056Z,100150.56
2022-10-21T13:58:39.649Z,100178.84
2022-10-21T14:01:12.798Z,100169.41
2022-10-21T14:03:42.370Z,100176.28
2022-10-21T14:06:13.029Z,100147.13
2022-10-21T14:08:46.327Z,100163.34
2022-10-21T14:11:19.197Z,100164.22
2022-10-21T14:13:48.685Z,100167.66
2022-10-21T14:16:30.323Z,100164.25
2022-10-21T14:18:59.060Z,100165.94
2022-10-21T14:21:32.587Z,100165.06
2022-10-21T14:24:01.119Z,100175.38
2022-10-21T14:26:32.065Z,100169.31
2022-10-21T14:29:01.278Z,100183.09
2022-10-21T14:31:28.833Z,100157.31
2022-10-21T14:33:56.374Z,100155.53
2022-10-21T14:36:26.259Z,100170.94
2022-10-21T14:39:07.860Z,100170.91
2022-10-21T14:41:38.068Z,100173.47
2022-10-21T14:44:16.717Z,100174.31
2022-10-21T14:46:47.564Z,100169.16
2022-10-21T14:49:42.029Z,100165.72
2022-10-21T14:52:17.405Z,100164.00
2022-10-21T14:54:49.765Z,100165.72
2022-10-21T14:57:39.738Z,100158.00
2022-10-21T15:00:19.865Z,100112.59
2022-10-21T15:02:48.543Z,100139.13
2022-10-21T15:05:34.552Z,100153.72
2022-10-21T15:08:34.644Z,100133.13
2022-10-21T15:11:12.476Z,100153.72
2022-10-21T15:13:39.592Z,100110.91
2022-10-21T15:16:19.145Z,100146.00
2022-10-21T15:18:52.974Z,100143.50
2022-10-21T15:21:36.201Z,100155.53
2022-10-21T15:24:05.808Z,100148.63
2022-10-21T15:26:38.315Z,100149.50
2022-10-21T15:29:15.048Z,100152.16
2022-10-21T15:31:42.878Z,100155.53
2022-10-21T15:34:14.666Z,100143.50
2022-10-21T15:36:43.086Z,100143.53
2022-10-21T15:39:11.117Z,100145.25
2022-10-21T15:41:39.485Z,100141.81
2022-10-21T15:44:29.224Z,100134.13
2022-10-21T15:47:00.886Z,100141.00
2022-10-21T15:49:41.677Z,100103.31
2022-10-21T15:52:09.995Z,100138.44
2022-10-21T15:54:37.328Z,100135.06
2022-10-21T15:57:15.684Z,100149.66
2022-10-21T15:59:43.430Z,100124.81
2022-10-21T16:02:16.911Z,100141.91
2022-10-21T16:04:46.068Z,100147.13
2022-10-21T16:07:29.702Z,100140.28
2022-10-21T16:09:57.394Z,100126.59
2022-10-21T16:12:24.571Z,100145.47
2022-10-21T16:14:51.698Z,100140.31
2022-10-21T16:17:19.645Z,100099.25
2022-10-21T16:19:46.939Z,100143.78
2022-10-21T16:22:20.525Z,100135.19
2022-10-21T16:24:47.737Z,100138.69
2022-10-21T16:27:26.414Z,100143.81
2022-10-21T16:29:58.734Z,100118.94
2022-10-21T16:32:25.965Z,100138.66
2022-10-21T16:34:53.096Z,100058.09
2022-10-21T16:37:27.818Z,100126.63
2022-10-21T16:39:55.121Z,100131.75
2022-10-21T16:42:22.336Z,100120.59
2022-10-21T16:44:50.865Z,100095.72
2022-10-21T16:47:20.474Z,100109.38
2022-10-21T16:49:49.447Z,100109.38
2022-10-21T16:52:17.178Z,100105.94
2022-10-21T16:54:48.641Z,100109.38
2022-10-21T16:57:16.382Z,100103.34
2022-10-21T16:59:43.690Z,100101.59
2022-10-21T17:02:20.885Z,100081.91
2022-10-21T17:04:48.200Z,100100.72
2022-10-21T17:07:15.345Z,100081.88
2022-10-21T17:09:42.435Z,100097.28
2022-10-21T17:12:11.316Z,100093.81
2022-10-21T17:14:38.550Z,100091.25
2022-10-21T17:17:05.654Z,100092.13
2022-10-21T17:19:33.127Z,100096.38
2022-10-21T17:22:00.321Z,100105.84
2022-10-21T17:24:28.315Z,100070.69
2022-10-21T17:26:57.926Z,100091.22
2022-10-21T17:29:25.251Z,100097.22
2022-10-21T17:31:52.362Z,100085.19
2022-10-21T17:34:27.126Z,100091.19
2022-10-21T17:36:54.555Z,100088.59
2022-10-21T17:39:22.487Z,100078.28
2022-10-21T17:41:50.291Z,100078.28
2022-10-21T17:44:19.390Z,100071.41
2022-10-21T17:46:48.039Z,100071.38
2022-10-21T17:49:15.809Z,100073.06
2022-10-21T17:51:43.268Z,100070.50
2022-10-21T17:54:11.050Z,100067.91
2022-10-21T17:56:38.731Z,100067.91
2022-10-21T17:59:05.850Z,100062.75
2022-10-21T18:01:33.235Z,100014.78
2022-10-21T18:04:00.398Z,100064.47
2022-10-21T18:06:27.846Z,100055.03
2022-10-21T18:08:57.226Z,100016.50
2022-10-21T18:11:24.780Z,100049.00
2022-10-21T18:13:55.043Z,100049.00
2022-10-21T18:16:24.335Z,100046.41
2022-10-21T18:18:52.016Z,100045.56
2022-10-21T18:21:22.049Z,100045.56
2022-10-21T18:23:52.764Z,100045.56
2022-10-21T18:26:25.598Z,100039.53
2022-10-21T18:28:57.467Z,99982.16
2022-10-21T18:31:26.588Z,100038.69
2022-10-21T18:33:55.468Z,100034.38
2022-10-21T18:36:23.817Z,100025.00
2022-10-21T18:38:51.134Z,100032.69
2022-10-21T18:41:21.143Z,100031.78
2022-10-21T18:43:53.107Z,100031.84
2022-10-21T18:46:21.230Z,100035.28
2022-10-21T18:48:48.895Z,100042.19
2022-10-21T18:51:17.440Z,100009.63
2022-10-21T18:53:48.452Z,100033.56
2022-10-21T18:56:18.421Z,100029.28
2022-10-21T18:58:45.765Z,99990.75
2022-10-21T19:01:15.180Z,99984.72
2022-10-21T19:03:43.479Z,100025.81
2022-10-21T19:06:36.261Z,100030.16
2022-10-21T19:09:13.499Z,99993.34
2022-10-21T19:11:41.699Z,100037.88
2022-10-21T19:14:11.428Z,99949.72
2022-10-21T19:16:41.457Z,100035.34
2022-10-21T19:19:09.611Z,100054.22
2022-10-21T19:21:36.961Z,100052.50
2022-10-21T19:24:04.738Z,100049.03
2022-10-21T19:26:33.460Z,100061.09
2022-10-21T19:29:16.748Z,100071.44
2022-10-21T19:34:17.934Z,100071.44
2022-10-21T19:36:45.077Z,100071.44
2022-10-21T19:39:13.144Z,100074.88
2022-10-21T19:41:41.026Z,100066.28
2022-10-21T19:44:08.637Z,100071.44
2022-10-21T19:46:36.094Z,100004.59
2022-10-21T19:49:05.150Z,100069.72
2022-10-21T19:51:32.886Z,100069.69
2022-10-21T19:54:00.227Z,100026.91
2022-10-21T19:56:30.802Z,100057.72
2022-10-21T19:59:00.598Z,100050.84
2022-10-21T20:01:27.843Z,100064.53
2022-10-21T20:03:55.783Z,100064.53
2022-10-21T20:06:28.876Z,100065.41
2022-10-21T20:08:59.200Z,100065.41
2022-10-21T20:11:26.998Z,100067.16
2022-10-21T20:13:54.996Z,100063.72
2022-10-21T20:16:27.379Z,100055.16
2022-10-21T20:18:55.924Z,100066.31
2022-10-21T20:21:24.306Z,100070.59
2022-10-21T20:23:51.859Z,100067.13
2022-10-21T20:26:19.226Z,100069.69
2022-10-21T20:28:46.622Z,100050.84
2022-10-21T20:31:15.757Z,100061.09
2022-10-21T20:33:48.736Z,100060.22
2022-10-21T20:36:21.979Z,100059.38
2022-10-21T20:38:50.083Z,100055.91
2022-10-21T20:41:26.208Z,100055.91
2022-10-21T20:43:54.363Z,100049.88
2022-10-21T20:46:25.276Z,100047.28
2022-10-21T20:48:54.115Z,100054.19
2022-10-21T20:51:27.225Z,100047.25
2022-10-21T20:53:56.985Z,100058.47
2022-10-21T20:56:28.010Z,100055.00
2022-10-21T20:58:55.432Z,100052.41
2022-10-21T21:01:28.108Z,100050.72
2022-10-21T21:03:58.128Z,100043.88
2022-10-21T21:06:26.710Z,100032.72
2022-10-21T21:09:22.221Z,100033.56
2022-10-21T21:11:41.383Z,100028.41
2022-10-21T21:14:08.663Z,100025.00
2022-10-21T21:16:35.945Z,99989.03
2022-10-21T21:19:05.587Z,99997.59
2022-10-21T21:21:35.571Z,100028.41
2022-10-21T21:24:02.861Z,100018.13
2022-10-21T21:26:35.283Z,100027.47
2022-10-21T21:29:03.106Z,100021.47
2022-10-21T21:31:31.490Z,100024.94
2022-10-21T21:33:59.157Z,100027.50
2022-10-21T21:36:26.828Z,100014.59
2022-10-21T21:38:54.410Z,99988.88
2022-10-21T21:41:23.442Z,100020.56
2022-10-21T21:43:52.247Z,99974.28
2022-10-21T21:46:24.336Z,100012.81
2022-10-21T21:49:00.930Z,100016.19
2022-10-21T21:51:31.478Z,100012.72
2022-10-21T21:53:59.018Z,100005.00
2022-10-21T21:56:27.306Z,99999.00
2022-10-21T21:58:58.254Z,99997.16
2022-10-21T22:01:30.030Z,99995.44
2022-10-21T22:03:58.298Z,99986.88
2022-10-21T22:06:28.810Z,99996.28
2022-10-21T22:08:56.648Z,99978.31
2022-10-21T22:11:27.251Z,99990.19
2022-10-21T22:13:54.647Z,99998.78
2022-10-21T22:16:24.496Z,99986.72
2022-10-21T22:18:52.278Z,100000.50
2022-10-21T22:21:20.235Z,99999.59
2022-10-21T22:23:48.593Z,99958.50
2022-10-21T22:26:16.589Z,99998.72
2022-10-21T22:28:44.547Z,99989.22
2022-10-21T22:31:16.053Z,99986.59
2022-10-21T22:36:16.747Z,99988.31
2022-10-21T22:38:45.053Z,99981.41
2022-10-21T22:41:13.061Z,99972.84
2022-10-21T22:43:40.902Z,99916.28
2022-10-21T22:48:55.360Z,99950.44
2022-10-21T22:51:22.487Z,99967.50
2022-10-21T22:53:55.115Z,99962.34
2022-10-21T22:56:25.089Z,99975.16
2022-10-21T22:58:52.593Z,99974.28
2022-10-21T23:01:20.031Z,99975.16
2022-10-21T23:03:47.166Z,99948.56
2022-10-21T23:06:14.723Z,99941.72
2022-10-21T23:08:42.108Z,99936.59
2022-10-21T23:11:09.354Z,99942.59
2022-10-21T23:13:36.496Z,99979.31
2022-10-21T23:16:03.642Z,99978.50
2022-10-21T23:18:30.897Z,99914.22
2022-10-21T23:20:58.056Z,99919.44
2022-10-21T23:23:25.357Z,99974.97
2022-10-21T23:25:52.479Z,99954.38
2022-10-21T23:28:19.614Z,99966.34
2022-10-21T23:30:48.278Z,99966.31
2022-10-21T23:33:15.586Z,99961.16
2022-10-21T23:35:42.719Z,99956.94
2022-10-21T23:38:09.766Z,99968.88
2022-10-21T23:40:37.065Z,99964.53
2022-10-21T23:43:04.914Z,99947.44
2022-10-21T23:45:32.159Z,99962.84
2022-10-21T23:47:59.415Z,99925.16
2022-10-21T23:50:26.977Z,99959.31
2022-10-21T23:52:54.158Z,99952.50
2022-10-21T23:55:21.709Z,99905.47
2022-10-21T23:57:48.984Z,99948.22
